sensor_id;sensor_type;location;lat;lon;timestamp;P1;durP1;ratioP1;P2;durP2;ratioP2
71104;SDS011;58760;48.716;8.962;2023-03-01T00:01:00;19.38;;;10.13;;
71104;SDS011;58760;48.716;8.962;2023-03-01T00:03:29;21.60;;;10.88;;
71104;SDS011;58760;48.716;8.962;2023-03-01T00:05:54;20.63;;;10.65;;
71104;SDS011;58760;48.716;8.962;2023-03-01T00:08:20;21.45;;;10.63;;
71104;SDS011;58760;48.716;8.962;2023-03-01T00:10:45;22.45;;;11.35;;
71104;SDS011;58760;48.716;8.962;2023-03-01T00:13:10;24.30;;;11.73;;
71104;SDS011;58760;48.716;8.962;2023-03-01T00:15:39;21.38;;;11.48;;
71104;SDS011;58760;48.716;8.962;2023-03-01T00:18:05;21.52;;;10.75;;
71104;SDS011;58760;48.716;8.962;2023-03-01T00:20:31;25.17;;;10.88;;
71104;SDS011;58760;48.716;8.962;2023-03-01T00:22:56;20.08;;;10.25;;
71104;SDS011;58760;48.716;8.962;2023-03-01T00:25:22;18.98;;;10.52;;
71104;SDS011;58760;48.716;8.962;2023-03-01T00:27:47;21.02;;;10.60;;
71104;SDS011;58760;48.716;8.962;2023-03-01T00:30:14;20.13;;;10.82;;
71104;SDS011;58760;48.716;8.962;2023-03-01T00:32:39;21.05;;;10.07;;
71104;SDS011;58760;48.716;8.962;2023-03-01T00:35:05;19.55;;;10.30;;
71104;SDS011;58760;48.716;8.962;2023-03-01T00:37:30;18.90;;;9.27;;
71104;SDS011;58760;48.716;8.962;2023-03-01T00:39:56;19.42;;;9.65;;
71104;SDS011;58760;48.716;8.962;2023-03-01T00:42:21;20.38;;;9.77;;
71104;SDS011;58760;48.716;8.962;2023-03-01T00:44:47;19.80;;;9.93;;
71104;SDS011;58760;48.716;8.962;2023-03-01T00:47:12;18.05;;;10.13;;
71104;SDS011;58760;48.716;8.962;2023-03-01T00:49:38;20.27;;;10.55;;
71104;SDS011;58760;48.716;8.962;2023-03-01T00:52:04;19.83;;;9.77;;
71104;SDS011;58760;48.716;8.962;2023-03-01T00:54:30;22.67;;;10.63;;
71104;SDS011;58760;48.716;8.962;2023-03-01T00:56:55;24.40;;;11.50;;
71104;SDS011;58760;48.716;8.962;2023-03-01T00:59:20;20.52;;;11.23;;
71104;SDS011;58760;48.716;8.962;2023-03-01T01:01:46;21.05;;;10.93;;
71104;SDS011;58760;48.716;8.962;2023-03-01T01:04:12;21.30;;;10.75;;
71104;SDS011;58760;48.716;8.962;2023-03-01T01:06:39;21.27;;;10.85;;
71104;SDS011;58760;48.716;8.962;2023-03-01T01:09:10;32.45;;;12.80;;
71104;SDS011;58760;48.716;8.962;2023-03-01T01:11:42;22.20;;;10.73;;
71104;SDS011;58760;48.716;8.962;2023-03-01T01:14:08;23.27;;;10.55;;
71104;SDS011;58760;48.716;8.962;2023-03-01T01:16:33;27.65;;;10.88;;
71104;SDS011;58760;48.716;8.962;2023-03-01T01:18:59;22.02;;;10.35;;
71104;SDS011;58760;48.716;8.962;2023-03-01T01:21:25;24.42;;;11.80;;
71104;SDS011;58760;48.716;8.962;2023-03-01T01:23:50;20.70;;;10.80;;
71104;SDS011;58760;48.716;8.962;2023-03-01T01:26:18;22.60;;;11.20;;
71104;SDS011;58760;48.716;8.962;2023-03-01T01:28:48;22.90;;;11.07;;
71104;SDS011;58760;48.716;8.962;2023-03-01T01:31:14;24.52;;;11.00;;
71104;SDS011;58760;48.716;8.962;2023-03-01T01:33:39;22.60;;;11.18;;
71104;SDS011;58760;48.716;8.962;2023-03-01T01:36:06;23.85;;;11.27;;
71104;SDS011;58760;48.716;8.962;2023-03-01T01:38:32;26.65;;;12.02;;
71104;SDS011;58760;48.716;8.962;2023-03-01T01:40:58;23.95;;;11.40;;
71104;SDS011;58760;48.716;8.962;2023-03-01T01:46:37;21.30;;;10.63;;
71104;SDS011;58760;48.716;8.962;2023-03-01T01:48:43;19.95;;;10.68;;
71104;SDS011;58760;48.716;8.962;2023-03-01T01:51:22;21.20;;;10.73;;
71104;SDS011;58760;48.716;8.962;2023-03-01T01:53:51;23.52;;;11.98;;
71104;SDS011;58760;48.716;8.962;2023-03-01T01:56:20;19.13;;;10.20;;
71104;SDS011;58760;48.716;8.962;2023-03-01T01:58:47;22.92;;;11.48;;
71104;SDS011;58760;48.716;8.962;2023-03-01T02:01:14;23.05;;;11.88;;
71104;SDS011;58760;48.716;8.962;2023-03-01T02:03:40;23.67;;;11.45;;
71104;SDS011;58760;48.716;8.962;2023-03-01T02:08:35;20.87;;;10.90;;
71104;SDS011;58760;48.716;8.962;2023-03-01T02:11:03;21.92;;;10.55;;
71104;SDS011;58760;48.716;8.962;2023-03-01T02:13:30;22.15;;;11.25;;
71104;SDS011;58760;48.716;8.962;2023-03-01T02:15:57;24.35;;;11.75;;
71104;SDS011;58760;48.716;8.962;2023-03-01T02:18:23;21.77;;;11.50;;
71104;SDS011;58760;48.716;8.962;2023-03-01T02:21:08;21.30;;;11.30;;
71104;SDS011;58760;48.716;8.962;2023-03-01T02:23:38;23.65;;;11.85;;
71104;SDS011;58760;48.716;8.962;2023-03-01T02:28:47;21.45;;;11.27;;
71104;SDS011;58760;48.716;8.962;2023-03-01T02:31:17;26.48;;;12.85;;
71104;SDS011;58760;48.716;8.962;2023-03-01T02:34:03;23.50;;;11.93;;
71104;SDS011;58760;48.716;8.962;2023-03-01T02:36:35;22.70;;;11.75;;
71104;SDS011;58760;48.716;8.962;2023-03-01T02:39:03;23.15;;;11.05;;
71104;SDS011;58760;48.716;8.962;2023-03-01T02:41:32;23.15;;;11.55;;
71104;SDS011;58760;48.716;8.962;2023-03-01T02:44:00;22.27;;;11.27;;
71104;SDS011;58760;48.716;8.962;2023-03-01T02:46:27;23.63;;;11.60;;
71104;SDS011;58760;48.716;8.962;2023-03-01T02:48:53;25.55;;;12.80;;
71104;SDS011;58760;48.716;8.962;2023-03-01T02:54:24;23.15;;;11.70;;
71104;SDS011;58760;48.716;8.962;2023-03-01T02:56:54;22.55;;;12.23;;
71104;SDS011;58760;48.716;8.962;2023-03-01T02:59:22;23.25;;;11.90;;
71104;SDS011;58760;48.716;8.962;2023-03-01T03:01:50;21.80;;;11.15;;
71104;SDS011;58760;48.716;8.962;2023-03-01T03:04:16;23.52;;;11.95;;
71104;SDS011;58760;48.716;8.962;2023-03-01T03:09:09;21.23;;;10.57;;
71104;SDS011;58760;48.716;8.962;2023-03-01T03:11:35;19.98;;;11.25;;
71104;SDS011;58760;48.716;8.962;2023-03-01T03:14:01;24.58;;;11.30;;
71104;SDS011;58760;48.716;8.962;2023-03-01T03:16:27;22.10;;;11.73;;
71104;SDS011;58760;48.716;8.962;2023-03-01T03:18:54;24.80;;;11.43;;
71104;SDS011;58760;48.716;8.962;2023-03-01T03:21:33;19.83;;;11.15;;
71104;SDS011;58760;48.716;8.962;2023-03-01T03:23:59;20.05;;;11.35;;
71104;SDS011;58760;48.716;8.962;2023-03-01T03:26:24;22.30;;;11.82;;
71104;SDS011;58760;48.716;8.962;2023-03-01T03:28:50;22.88;;;12.18;;
71104;SDS011;58760;48.716;8.962;2023-03-01T03:31:15;24.10;;;12.15;;
71104;SDS011;58760;48.716;8.962;2023-03-01T03:33:41;20.65;;;11.07;;
71104;SDS011;58760;48.716;8.962;2023-03-01T03:36:06;25.23;;;12.52;;
71104;SDS011;58760;48.716;8.962;2023-03-01T03:38:38;25.73;;;12.43;;
71104;SDS011;58760;48.716;8.962;2023-03-01T03:41:06;23.58;;;11.98;;
71104;SDS011;58760;48.716;8.962;2023-03-01T03:43:33;23.48;;;12.40;;
71104;SDS011;58760;48.716;8.962;2023-03-01T03:46:00;23.05;;;11.55;;
71104;SDS011;58760;48.716;8.962;2023-03-01T03:48:30;21.98;;;12.48;;
71104;SDS011;58760;48.716;8.962;2023-03-01T03:50:58;21.00;;;11.27;;
71104;SDS011;58760;48.716;8.962;2023-03-01T03:53:24;23.25;;;11.77;;
71104;SDS011;58760;48.716;8.962;2023-03-01T03:55:50;24.77;;;12.10;;
71104;SDS011;58760;48.716;8.962;2023-03-01T03:58:16;25.13;;;12.10;;
71104;SDS011;58760;48.716;8.962;2023-03-01T04:00:44;23.50;;;11.68;;
71104;SDS011;58760;48.716;8.962;2023-03-01T04:03:12;25.88;;;12.35;;
71104;SDS011;58760;48.716;8.962;2023-03-01T04:05:40;27.08;;;13.88;;
71104;SDS011;58760;48.716;8.962;2023-03-01T04:08:06;29.52;;;12.55;;
71104;SDS011;58760;48.716;8.962;2023-03-01T04:10:34;23.98;;;12.70;;
71104;SDS011;58760;48.716;8.962;2023-03-01T04:13:02;23.67;;;11.95;;
71104;SDS011;58760;48.716;8.962;2023-03-01T04:15:28;22.92;;;12.63;;
71104;SDS011;58760;48.716;8.962;2023-03-01T04:17:54;22.95;;;12.07;;
71104;SDS011;58760;48.716;8.962;2023-03-01T04:20:21;21.38;;;11.38;;
71104;SDS011;58760;48.716;8.962;2023-03-01T04:25:35;20.05;;;11.10;;
71104;SDS011;58760;48.716;8.962;2023-03-01T04:28:07;27.38;;;12.88;;
71104;SDS011;58760;48.716;8.962;2023-03-01T04:30:34;26.48;;;11.95;;
71104;SDS011;58760;48.716;8.962;2023-03-01T04:33:04;21.90;;;11.40;;
71104;SDS011;58760;48.716;8.962;2023-03-01T04:35:31;26.45;;;13.40;;
71104;SDS011;58760;48.716;8.962;2023-03-01T04:37:57;21.70;;;11.80;;
71104;SDS011;58760;48.716;8.962;2023-03-01T04:40:22;24.27;;;11.70;;
71104;SDS011;58760;48.716;8.962;2023-03-01T04:42:48;23.25;;;12.27;;
71104;SDS011;58760;48.716;8.962;2023-03-01T04:45:13;24.02;;;12.60;;
71104;SDS011;58760;48.716;8.962;2023-03-01T04:47:39;21.10;;;11.35;;
71104;SDS011;58760;48.716;8.962;2023-03-01T04:50:06;22.73;;;11.75;;
71104;SDS011;58760;48.716;8.962;2023-03-01T04:52:32;24.52;;;12.40;;
71104;SDS011;58760;48.716;8.962;2023-03-01T04:54:58;22.67;;;11.98;;
71104;SDS011;58760;48.716;8.962;2023-03-01T04:57:23;21.67;;;12.00;;
71104;SDS011;58760;48.716;8.962;2023-03-01T04:59:49;23.85;;;12.68;;
71104;SDS011;58760;48.716;8.962;2023-03-01T05:02:14;24.30;;;13.18;;
71104;SDS011;58760;48.716;8.962;2023-03-01T05:04:39;22.25;;;12.73;;
71104;SDS011;58760;48.716;8.962;2023-03-01T05:07:05;24.45;;;12.65;;
71104;SDS011;58760;48.716;8.962;2023-03-01T05:09:30;26.80;;;13.00;;
71104;SDS011;58760;48.716;8.962;2023-03-01T05:11:55;25.27;;;12.48;;
71104;SDS011;58760;48.716;8.962;2023-03-01T05:14:21;25.25;;;12.57;;
71104;SDS011;58760;48.716;8.962;2023-03-01T05:16:46;25.40;;;12.50;;
71104;SDS011;58760;48.716;8.962;2023-03-01T05:19:12;24.73;;;12.95;;
71104;SDS011;58760;48.716;8.962;2023-03-01T05:21:40;25.98;;;12.23;;
71104;SDS011;58760;48.716;8.962;2023-03-01T05:24:26;25.63;;;12.75;;
71104;SDS011;58760;48.716;8.962;2023-03-01T05:26:52;25.00;;;12.07;;
71104;SDS011;58760;48.716;8.962;2023-03-01T05:29:19;25.88;;;12.70;;
71104;SDS011;58760;48.716;8.962;2023-03-01T05:31:51;26.80;;;13.38;;
71104;SDS011;58760;48.716;8.962;2023-03-01T05:34:24;26.38;;;13.35;;
71104;SDS011;58760;48.716;8.962;2023-03-01T05:36:50;25.55;;;12.57;;
71104;SDS011;58760;48.716;8.962;2023-03-01T05:39:18;23.48;;;12.77;;
71104;SDS011;58760;48.716;8.962;2023-03-01T05:41:46;23.90;;;12.65;;
71104;SDS011;58760;48.716;8.962;2023-03-01T05:44:11;24.15;;;12.95;;
71104;SDS011;58760;48.716;8.962;2023-03-01T05:46:37;24.17;;;13.50;;
71104;SDS011;58760;48.716;8.962;2023-03-01T05:49:02;27.48;;;13.52;;
71104;SDS011;58760;48.716;8.962;2023-03-01T05:51:29;23.27;;;12.80;;
71104;SDS011;58760;48.716;8.962;2023-03-01T05:53:54;25.35;;;12.57;;
71104;SDS011;58760;48.716;8.962;2023-03-01T05:56:20;25.17;;;12.80;;
71104;SDS011;58760;48.716;8.962;2023-03-01T05:58:47;22.23;;;12.18;;
71104;SDS011;58760;48.716;8.962;2023-03-01T06:01:14;23.25;;;12.48;;
71104;SDS011;58760;48.716;8.962;2023-03-01T06:03:39;21.95;;;12.07;;
71104;SDS011;58760;48.716;8.962;2023-03-01T06:06:05;21.85;;;11.20;;
71104;SDS011;58760;48.716;8.962;2023-03-01T06:08:30;24.00;;;12.68;;
71104;SDS011;58760;48.716;8.962;2023-03-01T06:10:55;24.80;;;13.18;;
71104;SDS011;58760;48.716;8.962;2023-03-01T06:13:21;24.17;;;12.73;;
71104;SDS011;58760;48.716;8.962;2023-03-01T06:15:48;27.70;;;13.10;;
71104;SDS011;58760;48.716;8.962;2023-03-01T06:18:13;25.38;;;12.88;;
71104;SDS011;58760;48.716;8.962;2023-03-01T06:20:39;27.42;;;13.68;;
71104;SDS011;58760;48.716;8.962;2023-03-01T06:23:04;24.65;;;12.85;;
71104;SDS011;58760;48.716;8.962;2023-03-01T06:25:30;25.02;;;12.52;;
71104;SDS011;58760;48.716;8.962;2023-03-01T06:27:55;24.88;;;13.80;;
71104;SDS011;58760;48.716;8.962;2023-03-01T06:30:22;23.35;;;12.80;;
71104;SDS011;58760;48.716;8.962;2023-03-01T06:32:49;26.90;;;14.27;;
71104;SDS011;58760;48.716;8.962;2023-03-01T06:35:15;26.55;;;14.10;;
71104;SDS011;58760;48.716;8.962;2023-03-01T06:37:45;31.13;;;14.30;;
71104;SDS011;58760;48.716;8.962;2023-03-01T06:40:11;28.00;;;13.90;;
71104;SDS011;58760;48.716;8.962;2023-03-01T06:42:39;26.35;;;13.93;;
71104;SDS011;58760;48.716;8.962;2023-03-01T06:45:08;28.83;;;14.82;;
71104;SDS011;58760;48.716;8.962;2023-03-01T06:47:34;24.15;;;13.43;;
71104;SDS011;58760;48.716;8.962;2023-03-01T06:49:59;29.67;;;15.30;;
71104;SDS011;58760;48.716;8.962;2023-03-01T06:52:26;24.48;;;13.23;;
71104;SDS011;58760;48.716;8.962;2023-03-01T06:54:51;27.70;;;14.13;;
71104;SDS011;58760;48.716;8.962;2023-03-01T06:57:16;25.13;;;13.23;;
71104;SDS011;58760;48.716;8.962;2023-03-01T06:59:42;26.13;;;13.88;;
71104;SDS011;58760;48.716;8.962;2023-03-01T07:02:09;31.67;;;15.07;;
71104;SDS011;58760;48.716;8.962;2023-03-01T07:04:36;26.63;;;14.65;;
71104;SDS011;58760;48.716;8.962;2023-03-01T07:07:01;24.48;;;13.90;;
71104;SDS011;58760;48.716;8.962;2023-03-01T07:09:27;30.50;;;14.73;;
71104;SDS011;58760;48.716;8.962;2023-03-01T07:11:52;27.77;;;13.43;;
71104;SDS011;58760;48.716;8.962;2023-03-01T07:14:17;26.83;;;13.65;;
71104;SDS011;58760;48.716;8.962;2023-03-01T07:16:44;25.45;;;13.23;;
71104;SDS011;58760;48.716;8.962;2023-03-01T07:19:10;28.48;;;13.77;;
71104;SDS011;58760;48.716;8.962;2023-03-01T07:21:36;26.20;;;14.20;;
71104;SDS011;58760;48.716;8.962;2023-03-01T07:24:04;26.75;;;13.45;;
71104;SDS011;58760;48.716;8.962;2023-03-01T07:26:31;25.67;;;13.55;;
71104;SDS011;58760;48.716;8.962;2023-03-01T07:28:58;25.17;;;13.20;;
71104;SDS011;58760;48.716;8.962;2023-03-01T07:31:24;24.27;;;13.30;;
71104;SDS011;58760;48.716;8.962;2023-03-01T07:33:52;25.77;;;12.55;;
71104;SDS011;58760;48.716;8.962;2023-03-01T07:36:18;29.73;;;14.05;;
71104;SDS011;58760;48.716;8.962;2023-03-01T07:38:43;25.05;;;13.32;;
71104;SDS011;58760;48.716;8.962;2023-03-01T07:41:08;24.70;;;13.55;;
71104;SDS011;58760;48.716;8.962;2023-03-01T07:43:34;25.48;;;13.20;;
71104;SDS011;58760;48.716;8.962;2023-03-01T07:46:02;24.23;;;12.93;;
71104;SDS011;58760;48.716;8.962;2023-03-01T07:48:28;26.30;;;13.20;;
71104;SDS011;58760;48.716;8.962;2023-03-01T07:50:57;25.13;;;13.32;;
71104;SDS011;58760;48.716;8.962;2023-03-01T07:53:23;24.70;;;12.25;;
71104;SDS011;58760;48.716;8.962;2023-03-01T07:55:49;27.35;;;13.70;;
71104;SDS011;58760;48.716;8.962;2023-03-01T07:58:14;29.70;;;13.95;;
71104;SDS011;58760;48.716;8.962;2023-03-01T08:00:39;27.52;;;13.52;;
71104;SDS011;58760;48.716;8.962;2023-03-01T08:03:05;25.80;;;14.15;;
71104;SDS011;58760;48.716;8.962;2023-03-01T08:05:30;25.88;;;13.25;;
71104;SDS011;58760;48.716;8.962;2023-03-01T08:07:55;22.35;;;13.55;;
71104;SDS011;58760;48.716;8.962;2023-03-01T08:10:21;25.60;;;14.48;;
71104;SDS011;58760;48.716;8.962;2023-03-01T08:12:46;23.85;;;13.82;;
71104;SDS011;58760;48.716;8.962;2023-03-01T08:15:11;25.35;;;13.55;;
71104;SDS011;58760;48.716;8.962;2023-03-01T08:17:37;27.75;;;13.65;;
71104;SDS011;58760;48.716;8.962;2023-03-01T08:20:03;26.02;;;14.15;;
71104;SDS011;58760;48.716;8.962;2023-03-01T08:22:31;26.30;;;13.88;;
71104;SDS011;58760;48.716;8.962;2023-03-01T08:24:56;28.20;;;14.93;;
71104;SDS011;58760;48.716;8.962;2023-03-01T08:27:21;28.17;;;14.88;;
71104;SDS011;58760;48.716;8.962;2023-03-01T08:29:47;26.30;;;14.00;;
71104;SDS011;58760;48.716;8.962;2023-03-01T08:32:12;25.05;;;13.70;;
71104;SDS011;58760;48.716;8.962;2023-03-01T08:34:38;26.33;;;14.20;;
71104;SDS011;58760;48.716;8.962;2023-03-01T08:37:03;29.73;;;14.15;;
71104;SDS011;58760;48.716;8.962;2023-03-01T08:39:28;25.65;;;14.35;;
71104;SDS011;58760;48.716;8.962;2023-03-01T08:41:54;29.15;;;13.85;;
71104;SDS011;58760;48.716;8.962;2023-03-01T08:44:19;26.45;;;14.07;;
71104;SDS011;58760;48.716;8.962;2023-03-01T08:46:46;26.85;;;14.68;;
71104;SDS011;58760;48.716;8.962;2023-03-01T08:49:13;26.80;;;14.52;;
71104;SDS011;58760;48.716;8.962;2023-03-01T08:51:40;28.23;;;14.60;;
71104;SDS011;58760;48.716;8.962;2023-03-01T08:54:06;25.50;;;14.27;;
71104;SDS011;58760;48.716;8.962;2023-03-01T08:56:35;25.67;;;13.93;;
71104;SDS011;58760;48.716;8.962;2023-03-01T08:59:01;25.80;;;14.65;;
71104;SDS011;58760;48.716;8.962;2023-03-01T09:01:27;25.98;;;13.88;;
71104;SDS011;58760;48.716;8.962;2023-03-01T09:03:52;25.08;;;13.40;;
71104;SDS011;58760;48.716;8.962;2023-03-01T09:06:17;28.38;;;15.15;;
71104;SDS011;58760;48.716;8.962;2023-03-01T09:08:44;28.00;;;13.55;;
71104;SDS011;58760;48.716;8.962;2023-03-01T09:11:12;25.30;;;13.88;;
71104;SDS011;58760;48.716;8.962;2023-03-01T09:13:41;26.77;;;13.27;;
71104;SDS011;58760;48.716;8.962;2023-03-01T09:16:06;25.33;;;13.63;;
71104;SDS011;58760;48.716;8.962;2023-03-01T09:18:33;26.80;;;13.80;;
71104;SDS011;58760;48.716;8.962;2023-03-01T09:21:03;25.30;;;13.50;;
71104;SDS011;58760;48.716;8.962;2023-03-01T09:23:34;25.05;;;13.48;;
71104;SDS011;58760;48.716;8.962;2023-03-01T09:26:01;23.17;;;12.82;;
71104;SDS011;58760;48.716;8.962;2023-03-01T09:28:27;23.70;;;13.20;;
71104;SDS011;58760;48.716;8.962;2023-03-01T09:30:52;24.92;;;13.50;;
71104;SDS011;58760;48.716;8.962;2023-03-01T09:33:18;25.60;;;13.88;;
71104;SDS011;58760;48.716;8.962;2023-03-01T09:35:43;23.25;;;12.93;;
71104;SDS011;58760;48.716;8.962;2023-03-01T09:38:12;25.65;;;13.25;;
71104;SDS011;58760;48.716;8.962;2023-03-01T09:43:12;26.90;;;13.02;;
71104;SDS011;58760;48.716;8.962;2023-03-01T09:45:44;24.67;;;12.57;;
71104;SDS011;58760;48.716;8.962;2023-03-01T09:48:19;23.63;;;12.13;;
71104;SDS011;58760;48.716;8.962;2023-03-01T09:50:50;24.77;;;14.30;;
71104;SDS011;58760;48.716;8.962;2023-03-01T09:53:17;22.38;;;12.63;;
71104;SDS011;58760;48.716;8.962;2023-03-01T09:55:55;25.00;;;13.15;;
71104;SDS011;58760;48.716;8.962;2023-03-01T10:01:56;26.30;;;14.00;;
71104;SDS011;58760;48.716;8.962;2023-03-01T10:07:10;21.70;;;13.00;;
71104;SDS011;58760;48.716;8.962;2023-03-01T10:09:40;25.27;;;13.32;;
71104;SDS011;58760;48.716;8.962;2023-03-01T10:12:15;26.67;;;13.38;;
71104;SDS011;58760;48.716;8.962;2023-03-01T10:22:42;26.90;;;13.82;;
71104;SDS011;58760;48.716;8.962;2023-03-01T10:25:13;26.25;;;14.45;;
71104;SDS011;58760;48.716;8.962;2023-03-01T10:27:44;24.77;;;14.68;;
71104;SDS011;58760;48.716;8.962;2023-03-01T10:30:17;25.55;;;13.50;;
71104;SDS011;58760;48.716;8.962;2023-03-01T10:32:46;22.38;;;12.88;;
71104;SDS011;58760;48.716;8.962;2023-03-01T10:35:19;23.58;;;13.15;;
71104;SDS011;58760;48.716;8.962;2023-03-01T10:40:29;25.30;;;13.82;;
71104;SDS011;58760;48.716;8.962;2023-03-01T10:42:57;25.50;;;13.23;;
71104;SDS011;58760;48.716;8.962;2023-03-01T10:45:37;25.55;;;13.77;;
71104;SDS011;58760;48.716;8.962;2023-03-01T10:48:11;26.83;;;14.05;;
71104;SDS011;58760;48.716;8.962;2023-03-01T10:50:42;23.50;;;12.82;;
71104;SDS011;58760;48.716;8.962;2023-03-01T10:56:05;25.05;;;13.50;;
71104;SDS011;58760;48.716;8.962;2023-03-01T10:58:34;22.92;;;12.95;;
71104;SDS011;58760;48.716;8.962;2023-03-01T11:01:03;26.23;;;13.82;;
71104;SDS011;58760;48.716;8.962;2023-03-01T11:03:32;27.27;;;13.35;;
71104;SDS011;58760;48.716;8.962;2023-03-01T11:08:45;25.08;;;13.90;;
71104;SDS011;58760;48.716;8.962;2023-03-01T11:11:14;24.00;;;12.75;;
71104;SDS011;58760;48.716;8.962;2023-03-01T11:14:18;23.98;;;12.23;;
71104;SDS011;58760;48.716;8.962;2023-03-01T11:16:47;25.02;;;13.50;;
71104;SDS011;58760;48.716;8.962;2023-03-01T11:19:22;21.83;;;12.75;;
71104;SDS011;58760;48.716;8.962;2023-03-01T11:24:53;22.55;;;12.32;;
71104;SDS011;58760;48.716;8.962;2023-03-01T11:27:24;19.02;;;12.23;;
71104;SDS011;58760;48.716;8.962;2023-03-01T11:32:25;21.52;;;12.70;;
71104;SDS011;58760;48.716;8.962;2023-03-01T11:35:08;23.13;;;12.45;;
71104;SDS011;58760;48.716;8.962;2023-03-01T11:37:44;20.92;;;11.43;;
71104;SDS011;58760;48.716;8.962;2023-03-01T11:40:16;20.00;;;11.55;;
71104;SDS011;58760;48.716;8.962;2023-03-01T11:43:15;22.70;;;12.23;;
71104;SDS011;58760;48.716;8.962;2023-03-01T11:45:47;20.85;;;11.90;;
71104;SDS011;58760;48.716;8.962;2023-03-01T11:48:31;19.98;;;11.68;;
71104;SDS011;58760;48.716;8.962;2023-03-01T11:51:05;24.30;;;11.57;;
71104;SDS011;58760;48.716;8.962;2023-03-01T11:53:51;22.55;;;12.75;;
71104;SDS011;58760;48.716;8.962;2023-03-01T11:56:25;21.60;;;12.02;;
71104;SDS011;58760;48.716;8.962;2023-03-01T12:07:15;17.88;;;10.25;;
71104;SDS011;58760;48.716;8.962;2023-03-01T12:26:29;22.85;;;11.30;;
71104;SDS011;58760;48.716;8.962;2023-03-01T12:29:25;24.90;;;11.00;;
71104;SDS011;58760;48.716;8.962;2023-03-01T12:34:50;16.88;;;10.45;;
71104;SDS011;58760;48.716;8.962;2023-03-01T12:43:03;17.75;;;11.05;;
71104;SDS011;58760;48.716;8.962;2023-03-01T12:45:50;27.30;;;11.32;;
71104;SDS011;58760;48.716;8.962;2023-03-01T12:48:37;19.98;;;11.15;;
71104;SDS011;58760;48.716;8.962;2023-03-01T12:51:09;16.50;;;10.20;;
71104;SDS011;58760;48.716;8.962;2023-03-01T12:53:43;17.27;;;10.45;;
71104;SDS011;58760;48.716;8.962;2023-03-01T12:56:14;15.63;;;9.82;;
71104;SDS011;58760;48.716;8.962;2023-03-01T13:10:20;14.68;;;10.25;;
71104;SDS011;58760;48.716;8.962;2023-03-01T13:18:33;14.77;;;8.90;;
71104;SDS011;58760;48.716;8.962;2023-03-01T13:23:23;18.17;;;10.52;;
71104;SDS011;58760;48.716;8.962;2023-03-01T13:33:47;15.63;;;9.43;;
71104;SDS011;58760;48.716;8.962;2023-03-01T13:46:47;20.05;;;11.05;;
71104;SDS011;58760;48.716;8.962;2023-03-01T13:49:16;16.75;;;10.77;;
71104;SDS011;58760;48.716;8.962;2023-03-01T13:51:46;18.77;;;10.20;;
71104;SDS011;58760;48.716;8.962;2023-03-01T13:54:14;18.80;;;11.10;;
71104;SDS011;58760;48.716;8.962;2023-03-01T13:56:41;17.85;;;10.70;;
71104;SDS011;58760;48.716;8.962;2023-03-01T13:59:18;19.23;;;11.65;;
71104;SDS011;58760;48.716;8.962;2023-03-01T14:01:51;18.48;;;10.63;;
71104;SDS011;58760;48.716;8.962;2023-03-01T14:04:23;16.30;;;11.13;;
71104;SDS011;58760;48.716;8.962;2023-03-01T14:06:51;18.05;;;10.50;;
71104;SDS011;58760;48.716;8.962;2023-03-01T14:09:23;17.50;;;10.65;;
71104;SDS011;58760;48.716;8.962;2023-03-01T14:12:35;17.58;;;10.82;;
71104;SDS011;58760;48.716;8.962;2023-03-01T14:14:52;17.40;;;11.18;;
71104;SDS011;58760;48.716;8.962;2023-03-01T14:17:44;16.92;;;11.48;;
71104;SDS011;58760;48.716;8.962;2023-03-01T14:23:11;19.73;;;11.82;;
71104;SDS011;58760;48.716;8.962;2023-03-01T14:25:45;18.73;;;10.50;;
71104;SDS011;58760;48.716;8.962;2023-03-01T14:30:51;18.55;;;10.95;;
71104;SDS011;58760;48.716;8.962;2023-03-01T14:38:51;17.23;;;11.05;;
71104;SDS011;58760;48.716;8.962;2023-03-01T14:41:23;20.17;;;11.48;;
71104;SDS011;58760;48.716;8.962;2023-03-01T14:43:55;21.08;;;10.77;;
71104;SDS011;58760;48.716;8.962;2023-03-01T14:46:37;17.63;;;11.25;;
71104;SDS011;58760;48.716;8.962;2023-03-01T14:49:12;18.75;;;10.75;;
71104;SDS011;58760;48.716;8.962;2023-03-01T14:51:41;18.15;;;10.32;;
71104;SDS011;58760;48.716;8.962;2023-03-01T14:57:05;18.05;;;10.63;;
71104;SDS011;58760;48.716;8.962;2023-03-01T14:59:32;16.95;;;11.35;;
71104;SDS011;58760;48.716;8.962;2023-03-01T15:01:58;17.02;;;11.70;;
71104;SDS011;58760;48.716;8.962;2023-03-01T15:04:25;18.35;;;11.43;;
71104;SDS011;58760;48.716;8.962;2023-03-01T15:06:52;18.88;;;10.90;;
71104;SDS011;58760;48.716;8.962;2023-03-01T15:09:20;15.75;;;10.30;;
71104;SDS011;58760;48.716;8.962;2023-03-01T15:11:47;17.30;;;11.48;;
71104;SDS011;58760;48.716;8.962;2023-03-01T15:14:25;19.67;;;11.85;;
71104;SDS011;58760;48.716;8.962;2023-03-01T15:17:21;20.70;;;11.50;;
71104;SDS011;58760;48.716;8.962;2023-03-01T15:19:54;17.77;;;11.65;;
71104;SDS011;58760;48.716;8.962;2023-03-01T15:22:19;17.30;;;11.43;;
71104;SDS011;58760;48.716;8.962;2023-03-01T15:24:46;22.67;;;12.35;;
71104;SDS011;58760;48.716;8.962;2023-03-01T15:27:17;20.38;;;11.95;;
71104;SDS011;58760;48.716;8.962;2023-03-01T15:29:54;24.83;;;13.77;;
71104;SDS011;58760;48.716;8.962;2023-03-01T15:32:30;23.48;;;12.65;;
71104;SDS011;58760;48.716;8.962;2023-03-01T15:34:58;22.95;;;12.52;;
71104;SDS011;58760;48.716;8.962;2023-03-01T15:37:43;22.90;;;12.93;;
71104;SDS011;58760;48.716;8.962;2023-03-01T15:42:59;24.33;;;12.45;;
71104;SDS011;58760;48.716;8.962;2023-03-01T15:45:27;24.48;;;12.30;;
71104;SDS011;58760;48.716;8.962;2023-03-01T15:47:58;20.05;;;12.00;;
71104;SDS011;58760;48.716;8.962;2023-03-01T15:50:31;22.75;;;12.90;;
71104;SDS011;58760;48.716;8.962;2023-03-01T15:52:58;22.70;;;13.10;;
71104;SDS011;58760;48.716;8.962;2023-03-01T15:55:27;21.83;;;12.73;;
71104;SDS011;58760;48.716;8.962;2023-03-01T15:57:58;21.73;;;12.50;;
71104;SDS011;58760;48.716;8.962;2023-03-01T16:00:43;23.42;;;13.07;;
71104;SDS011;58760;48.716;8.962;2023-03-01T16:03:12;22.33;;;13.18;;
71104;SDS011;58760;48.716;8.962;2023-03-01T16:05:37;24.40;;;12.68;;
71104;SDS011;58760;48.716;8.962;2023-03-01T16:08:04;24.77;;;12.98;;
71104;SDS011;58760;48.716;8.962;2023-03-01T16:10:31;20.88;;;11.95;;
71104;SDS011;58760;48.716;8.962;2023-03-01T16:12:57;25.90;;;11.93;;
71104;SDS011;58760;48.716;8.962;2023-03-01T16:15:24;23.42;;;13.05;;
71104;SDS011;58760;48.716;8.962;2023-03-01T16:17:52;24.13;;;12.88;;
71104;SDS011;58760;48.716;8.962;2023-03-01T16:20:17;24.27;;;12.82;;
71104;SDS011;58760;48.716;8.962;2023-03-01T16:22:43;22.88;;;11.77;;
71104;SDS011;58760;48.716;8.962;2023-03-01T16:25:10;23.48;;;12.68;;
71104;SDS011;58760;48.716;8.962;2023-03-01T16:27:37;27.00;;;12.60;;
71104;SDS011;58760;48.716;8.962;2023-03-01T16:30:02;21.90;;;12.10;;
71104;SDS011;58760;48.716;8.962;2023-03-01T16:32:29;21.83;;;12.27;;
71104;SDS011;58760;48.716;8.962;2023-03-01T16:34:54;23.30;;;13.00;;
71104;SDS011;58760;48.716;8.962;2023-03-01T16:37:19;23.27;;;12.00;;
71104;SDS011;58760;48.716;8.962;2023-03-01T16:42:13;24.70;;;12.77;;
71104;SDS011;58760;48.716;8.962;2023-03-01T16:44:39;23.20;;;12.48;;
71104;SDS011;58760;48.716;8.962;2023-03-01T16:47:04;22.52;;;12.55;;